Time;durP1;ratioP1;P1;durP2;ratioP2;P2;SDS_P1;SDS_P2;PMS_P1;PMS_P2;Temp;Humidity;BMP_temperature;BMP_pressure;BME280_temperature;BME280_humidity;BME280_pressure;Samples;Min_cycle;Max_cycle;Signal;HPM_P1;HPM_P2
2021/12/30 00:01:50;;;;;;;5.63;2.00;;;;;;;;;;5052122;28;20025;-88
2021/12/30 00:04:16;;;;;;;5.63;2.20;;;;;;;;;;5052475;28;20501;-88
2021/12/30 00:06:42;;;;;;;4.78;2.00;;;;;;;;;;5053668;28;20059;-87
2021/12/30 00:09:10;;;;;;;5.43;1.90;;;;;;;;;;5049819;28;20024;-88
2021/12/30 00:11:36;;;;;;;3.95;1.63;;;;;;;;;;5032233;28;20040;-87
2021/12/30 00:14:04;;;;;;;6.40;2.10;;;;;;;;;;5045312;28;20041;-87
2021/12/30 00:16:29;;;;;;;6.07;1.77;;;;;;;;;;5031650;28;20037;-88
2021/12/30 00:18:55;;;;;;;3.97;1.58;;;;;;;;;;5013667;28;20132;-87
2021/12/30 00:21:23;;;;;;;4.28;1.40;;;;;;;;;;5032021;28;20030;-89
2021/12/30 00:23:49;;;;;;;3.83;1.27;;;;;;;;;;5031492;28;20045;-87
2021/12/30 00:26:15;;;;;;;5.25;1.60;;;;;;;;;;5031094;28;20034;-87
2021/12/30 00:28:41;;;;;;;5.88;1.60;;;;;;;;;;5037214;28;20044;-87
2021/12/30 00:31:07;;;;;;;3.42;1.40;;;;;;;;;;5049159;28;20060;-88
2021/12/30 00:33:34;;;;;;;4.57;1.48;;;;;;;;;;5051771;28;20047;-87
2021/12/30 00:36:06;;;;;;;5.63;1.52;;;;;;;;;;5033334;28;20044;-89
2021/12/30 00:38:35;;;;;;;3.08;1.20;;;;;;;;;;5050765;28;20045;-87
2021/12/30 00:41:02;;;;;;;4.18;1.55;;;;;;;;;;5051304;28;20051;-87
2021/12/30 00:43:28;;;;;;;3.95;1.50;;;;;;;;;;5050221;28;20518;-88
2021/12/30 00:45:54;;;;;;;5.13;1.38;;;;;;;;;;5051060;28;20029;-89
2021/12/30 00:48:20;;;;;;;5.22;1.45;;;;;;;;;;5051213;28;20021;-89
2021/12/30 00:50:47;;;;;;;5.97;1.83;;;;;;;;;;5049259;28;20037;-87
2021/12/30 00:53:14;;;;;;;3.70;1.88;;;;;;;;;;5050865;28;20025;-87
2021/12/30 00:55:41;;;;;;;7.38;1.58;;;;;;;;;;5050569;28;20502;-88
2021/12/30 00:58:08;;;;;;;7.28;1.80;;;;;;;;;;5031972;28;20041;-86
2021/12/30 01:00:39;;;;;;;7.55;1.75;;;;;;;;;;5050798;28;20505;-87
2021/12/30 01:03:05;;;;;;;5.25;1.67;;;;;;;;;;5049365;28;20045;-87
2021/12/30 01:05:34;;;;;;;4.60;1.50;;;;;;;;;;5050679;28;20037;-89
2021/12/30 01:08:03;;;;;;;4.45;1.80;;;;;;;;;;5050410;28;20041;-89
2021/12/30 01:10:30;;;;;;;6.53;1.90;;;;;;;;;;5050111;28;20044;-89
2021/12/30 01:12:56;;;;;;;3.15;1.60;;;;;;;;;;5050906;28;20052;-87
2021/12/30 01:15:45;;;;;;;7.25;2.50;;;;;;;;;;5052896;28;20041;-88
2021/12/30 01:18:25;;;;;;;6.07;1.92;;;;;;;;;;5036126;28;20045;-89
2021/12/30 01:20:51;;;;;;;10.23;2.00;;;;;;;;;;5054204;28;20507;-88
2021/12/30 01:23:17;;;;;;;6.32;1.90;;;;;;;;;;5055937;28;20041;-87
2021/12/30 01:25:43;;;;;;;8.77;2.08;;;;;;;;;;5058650;28;20037;-86
2021/12/30 01:28:15;;;;;;;6.78;2.05;;;;;;;;;;5057414;28;20043;-89
2021/12/30 01:30:42;;;;;;;6.65;1.98;;;;;;;;;;5056195;28;20041;-91
2021/12/30 01:33:08;;;;;;;7.28;2.13;;;;;;;;;;5056149;28;20040;-90
2021/12/30 01:35:34;;;;;;;6.50;2.15;;;;;;;;;;5056688;28;20044;-90
2021/12/30 01:38:01;;;;;;;11.27;2.00;;;;;;;;;;5056676;28;20041;-88
2021/12/30 01:40:29;;;;;;;7.03;2.03;;;;;;;;;;5062286;28;20040;-88
2021/12/30 01:42:55;;;;;;;12.23;2.38;;;;;;;;;;5058291;28;20044;-88
2021/12/30 01:45:21;;;;;;;6.65;2.22;;;;;;;;;;5044823;28;20037;-91
2021/12/30 01:47:50;;;;;;;7.93;2.17;;;;;;;;;;5018799;28;20447;-91
2021/12/30 01:50:22;;;;;;;12.02;2.20;;;;;;;;;;5037291;28;20030;-89
2021/12/30 01:52:48;;;;;;;9.77;2.08;;;;;;;;;;5032966;28;20491;-90
2021/12/30 01:55:16;;;;;;;7.20;2.05;;;;;;;;;;5033869;28;20025;-90
2021/12/30 01:57:42;;;;;;;9.55;2.40;;;;;;;;;;5034558;28;20033;-88
2021/12/30 02:00:12;;;;;;;8.82;2.40;;;;;;;;;;5034817;28;20344;-91
2021/12/30 02:02:39;;;;;;;10.32;2.50;;;;;;;;;;5033720;28;20041;-89
2021/12/30 02:05:05;;;;;;;8.18;2.10;;;;;;;;;;5033788;28;20120;-89
2021/12/30 02:07:32;;;;;;;11.10;2.35;;;;;;;;;;5033794;28;20030;-89
2021/12/30 02:10:01;;;;;;;9.13;2.30;;;;;;;;;;5033580;28;20029;-88
2021/12/30 02:12:36;;;;;;;11.32;2.22;;;;;;;;;;5033478;28;20383;-88
2021/12/30 02:15:04;;;;;;;8.95;2.03;;;;;;;;;;5033531;28;20424;-89
2021/12/30 02:17:30;;;;;;;9.95;2.13;;;;;;;;;;5033847;28;20056;-90
2021/12/30 02:19:58;;;;;;;10.55;2.22;;;;;;;;;;5031558;28;20041;-88
2021/12/30 02:22:25;;;;;;;8.27;2.08;;;;;;;;;;5032702;28;20037;-88
2021/12/30 02:24:51;;;;;;;6.82;2.17;;;;;;;;;;5033979;28;20032;-90
2021/12/30 02:27:17;;;;;;;10.60;2.00;;;;;;;;;;5035389;28;20041;-89
2021/12/30 02:29:43;;;;;;;10.52;2.13;;;;;;;;;;5036222;28;20034;-89
2021/12/30 02:32:09;;;;;;;8.95;2.00;;;;;;;;;;5033493;28;20053;-89
2021/12/30 02:34:38;;;;;;;9.38;2.03;;;;;;;;;;5033537;28;20055;-90
2021/12/30 02:37:05;;;;;;;7.93;1.85;;;;;;;;;;5018208;28;20037;-89
2021/12/30 02:39:31;;;;;;;7.20;1.98;;;;;;;;;;5034009;28;20084;-88
2021/12/30 02:41:57;;;;;;;10.80;2.20;;;;;;;;;;5034010;28;20046;-89
2021/12/30 02:44:23;;;;;;;11.25;2.10;;;;;;;;;;5034538;28;20492;-90
2021/12/30 02:46:51;;;;;;;8.27;2.35;;;;;;;;;;5055104;28;20017;-91
2021/12/30 02:49:17;;;;;;;9.93;2.13;;;;;;;;;;5058224;28;20043;-90
2021/12/30 02:51:43;;;;;;;12.07;2.75;;;;;;;;;;5057663;28;20017;-87
2021/12/30 02:54:09;;;;;;;9.65;2.65;;;;;;;;;;5057338;28;20040;-87
2021/12/30 02:56:35;;;;;;;8.65;2.35;;;;;;;;;;5057709;28;20053;-88
2021/12/30 02:59:02;;;;;;;9.90;2.28;;;;;;;;;;5057748;28;20028;-89
2021/12/30 03:01:30;;;;;;;9.30;2.13;;;;;;;;;;5057741;28;20030;-89
2021/12/30 03:03:58;;;;;;;10.95;2.13;;;;;;;;;;5057113;28;20012;-88
2021/12/30 03:06:25;;;;;;;7.63;2.30;;;;;;;;;;5056568;28;20026;-88
2021/12/30 03:08:53;;;;;;;9.65;2.08;;;;;;;;;;5057096;28;20022;-89
2021/12/30 03:11:22;;;;;;;9.93;2.10;;;;;;;;;;5057634;28;20021;-87
2021/12/30 03:13:48;;;;;;;10.38;2.00;;;;;;;;;;5058400;28;20041;-86
2021/12/30 03:16:22;;;;;;;9.73;2.13;;;;;;;;;;5057331;28;20034;-87
2021/12/30 03:18:49;;;;;;;10.57;2.35;;;;;;;;;;5035854;28;20045;-87
2021/12/30 03:21:18;;;;;;;7.85;1.75;;;;;;;;;;5035053;28;20478;-87
2021/12/30 03:23:45;;;;;;;7.93;2.40;;;;;;;;;;5035424;28;20428;-87
2021/12/30 03:26:12;;;;;;;9.10;1.90;;;;;;;;;;5034251;28;20053;-86
2021/12/30 03:28:40;;;;;;;8.85;2.03;;;;;;;;;;5034455;28;20133;-87
2021/12/30 03:31:08;;;;;;;10.10;2.03;;;;;;;;;;5034432;28;20029;-87
2021/12/30 03:33:37;;;;;;;10.85;2.25;;;;;;;;;;5017121;28;20048;-87
2021/12/30 03:36:04;;;;;;;9.90;2.00;;;;;;;;;;5033564;28;20036;-88
2021/12/30 03:38:34;;;;;;;9.10;1.83;;;;;;;;;;5032052;28;20036;-88
2021/12/30 03:41:00;;;;;;;9.07;2.20;;;;;;;;;;5032047;28;20040;-89
2021/12/30 03:43:27;;;;;;;10.35;2.65;;;;;;;;;;5019853;28;20065;-87
2021/12/30 03:45:53;;;;;;;6.78;1.77;;;;;;;;;;5031903;28;20033;-86
2021/12/30 03:48:22;;;;;;;7.53;1.83;;;;;;;;;;5030038;28;20514;-86
2021/12/30 03:50:49;;;;;;;8.65;2.00;;;;;;;;;;5032029;28;20029;-87
2021/12/30 03:53:16;;;;;;;8.88;2.28;;;;;;;;;;5031260;28;20026;-87
2021/12/30 03:55:51;;;;;;;11.18;2.00;;;;;;;;;;5030592;28;20025;-88
2021/12/30 03:58:18;;;;;;;10.27;2.10;;;;;;;;;;5031307;28;20033;-86
2021/12/30 04:00:43;;;;;;;6.82;1.90;;;;;;;;;;5031663;28;20037;-86
2021/12/30 04:03:09;;;;;;;6.68;2.33;;;;;;;;;;5029901;28;20037;-87
2021/12/30 04:05:35;;;;;;;8.68;1.95;;;;;;;;;;5031441;28;20105;-87
2021/12/30 04:08:01;;;;;;;11.02;2.10;;;;;;;;;;5031577;28;20077;-85
2021/12/30 04:10:27;;;;;;;10.75;2.25;;;;;;;;;;5017520;28;20053;-86
2021/12/30 04:12:53;;;;;;;8.48;2.10;;;;;;;;;;5011530;28;20408;-87
2021/12/30 04:15:20;;;;;;;9.50;2.30;;;;;;;;;;5010796;28;20527;-88
2021/12/30 04:17:46;;;;;;;7.13;1.70;;;;;;;;;;5009317;28;20378;-85
2021/12/30 04:20:14;;;;;;;6.38;1.80;;;;;;;;;;5011078;28;20133;-86
2021/12/30 04:22:41;;;;;;;7.78;1.83;;;;;;;;;;5011176;28;20034;-86
2021/12/30 04:25:12;;;;;;;8.18;2.03;;;;;;;;;;5009136;28;20407;-85
2021/12/30 04:27:38;;;;;;;7.60;2.40;;;;;;;;;;5010935;28;20519;-86
2021/12/30 04:30:06;;;;;;;8.30;1.88;;;;;;;;;;5010017;28;20092;-88
2021/12/30 04:32:32;;;;;;;6.28;2.15;;;;;;;;;;5011711;28;20499;-86
2021/12/30 04:34:58;;;;;;;8.95;2.00;;;;;;;;;;5013021;28;20069;-86
2021/12/30 04:37:26;;;;;;;10.95;2.10;;;;;;;;;;5012733;28;20030;-87
2021/12/30 04:39:52;;;;;;;7.25;1.85;;;;;;;;;;5012259;28;20461;-87
2021/12/30 04:42:18;;;;;;;10.18;2.20;;;;;;;;;;5024251;28;20031;-86
2021/12/30 04:44:44;;;;;;;7.10;1.88;;;;;;;;;;5051279;28;20025;-88
2021/12/30 04:47:10;;;;;;;8.07;2.13;;;;;;;;;;5050354;28;20391;-87
2021/12/30 04:49:36;;;;;;;11.25;1.90;;;;;;;;;;5050340;28;20506;-87
2021/12/30 04:52:03;;;;;;;12.88;2.67;;;;;;;;;;5058209;28;20096;-87
2021/12/30 04:54:30;;;;;;;8.82;2.00;;;;;;;;;;5050353;28;20041;-88
2021/12/30 04:56:56;;;;;;;11.60;2.03;;;;;;;;;;5073461;28;20033;-87
2021/12/30 04:59:24;;;;;;;8.07;2.17;;;;;;;;;;5073011;28;20040;-89
2021/12/30 05:01:50;;;;;;;9.55;1.95;;;;;;;;;;5076406;28;20044;-87
2021/12/30 05:04:17;;;;;;;8.77;2.08;;;;;;;;;;5081748;28;20041;-86
2021/12/30 05:06:43;;;;;;;7.43;2.28;;;;;;;;;;5082003;28;20032;-87
2021/12/30 05:09:09;;;;;;;13.77;2.28;;;;;;;;;;5078828;28;20047;-87
2021/12/30 05:11:39;;;;;;;8.02;2.10;;;;;;;;;;5062182;28;20033;-87
2021/12/30 05:14:05;;;;;;;10.25;2.72;;;;;;;;;;5064012;28;20029;-87
2021/12/30 05:16:33;;;;;;;10.88;2.28;;;;;;;;;;5074277;28;20112;-88
2021/12/30 05:18:59;;;;;;;11.25;2.20;;;;;;;;;;5066953;28;20024;-87
2021/12/30 05:21:25;;;;;;;11.07;2.60;;;;;;;;;;5059248;28;20068;-87
2021/12/30 05:23:51;;;;;;;9.30;2.22;;;;;;;;;;5058787;28;20108;-87
2021/12/30 05:26:18;;;;;;;10.40;2.17;;;;;;;;;;5059253;28;20426;-87
2021/12/30 05:28:44;;;;;;;9.63;2.28;;;;;;;;;;5059307;28;20029;-89
2021/12/30 05:31:10;;;;;;;10.82;2.17;;;;;;;;;;5039496;28;20037;-87
2021/12/30 05:33:39;;;;;;;12.30;2.05;;;;;;;;;;5057831;28;20379;-88
2021/12/30 05:36:05;;;;;;;14.45;2.60;;;;;;;;;;5058148;28;20025;-88
2021/12/30 05:38:31;;;;;;;8.93;2.08;;;;;;;;;;5057778;28;20021;-87
2021/12/30 05:40:56;;;;;;;8.63;2.30;;;;;;;;;;5039168;28;20059;-88
2021/12/30 05:43:23;;;;;;;11.02;2.42;;;;;;;;;;5048011;28;20422;-87
2021/12/30 05:45:49;;;;;;;10.70;2.40;;;;;;;;;;5037608;28;20030;-87
2021/12/30 05:48:15;;;;;;;12.65;2.30;;;;;;;;;;5037761;28;20030;-89
2021/12/30 05:50:41;;;;;;;14.48;2.70;;;;;;;;;;5037753;28;20033;-87
2021/12/30 05:53:06;;;;;;;11.00;2.42;;;;;;;;;;5037676;28;20487;-88
2021/12/30 05:55:33;;;;;;;10.07;3.00;;;;;;;;;;5039049;28;20029;-88
2021/12/30 05:57:59;;;;;;;7.35;2.33;;;;;;;;;;5045969;28;20029;-88
2021/12/30 06:00:26;;;;;;;10.55;2.75;;;;;;;;;;5046682;28;20480;-89
2021/12/30 06:02:52;;;;;;;9.85;2.35;;;;;;;;;;5042707;28;20037;-88
2021/12/30 06:05:18;;;;;;;11.75;2.85;;;;;;;;;;5037756;28;20247;-89
2021/12/30 06:07:46;;;;;;;10.63;2.42;;;;;;;;;;5033784;28;20061;-88
2021/12/30 06:10:12;;;;;;;10.07;2.78;;;;;;;;;;5022975;28;20034;-88
2021/12/30 06:12:39;;;;;;;12.00;2.63;;;;;;;;;;5015100;28;20041;-88
2021/12/30 06:15:05;;;;;;;10.13;2.40;;;;;;;;;;4984584;28;20042;-88
2021/12/30 06:17:31;;;;;;;9.90;2.58;;;;;;;;;;5022623;28;20026;-88
2021/12/30 06:19:59;;;;;;;8.15;2.50;;;;;;;;;;5024207;28;20547;-88
2021/12/30 06:22:25;;;;;;;12.05;2.30;;;;;;;;;;5026300;28;20285;-88
2021/12/30 06:24:51;;;;;;;7.68;2.30;;;;;;;;;;5024446;28;20038;-87
2021/12/30 06:27:17;;;;;;;7.00;2.20;;;;;;;;;;5027950;28;20036;-88
2021/12/30 06:29:43;;;;;;;8.63;2.35;;;;;;;;;;5026524;28;20042;-88
2021/12/30 06:32:09;;;;;;;9.18;2.90;;;;;;;;;;5039306;28;20021;-88
2021/12/30 06:34:35;;;;;;;17.80;10.05;;;;;;;;;;5048529;28;20094;-88
2021/12/30 06:37:01;;;;;;;34.72;19.02;;;;;;;;;;5043289;28;20026;-88
2021/12/30 06:39:27;;;;;;;27.05;16.80;;;;;;;;;;5046705;28;20031;-87
2021/12/30 06:41:53;;;;;;;11.63;5.35;;;;;;;;;;5042808;28;20057;-88
2021/12/30 06:44:18;;;;;;;8.65;3.50;;;;;;;;;;5063020;28;20037;-89
2021/12/30 06:46:53;;;;;;;11.15;3.70;;;;;;;;;;5064710;28;20029;-88
2021/12/30 06:49:18;;;;;;;7.82;2.63;;;;;;;;;;5055916;28;20440;-89
2021/12/30 06:51:44;;;;;;;6.75;2.47;;;;;;;;;;5055106;28;20039;-88
2021/12/30 06:54:10;;;;;;;6.88;2.83;;;;;;;;;;5053078;28;20066;-88
2021/12/30 06:56:40;;;;;;;4.18;2.25;;;;;;;;;;5053174;28;20436;-86
2021/12/30 06:59:06;;;;;;;4.70;2.20;;;;;;;;;;5039598;28;20423;-88
2021/12/30 07:01:32;;;;;;;4.50;2.28;;;;;;;;;;5047827;28;20072;-89
2021/12/30 07:04:03;;;;;;;6.10;2.17;;;;;;;;;;5051145;28;20478;-80
2021/12/30 07:06:29;;;;;;;3.45;2.05;;;;;;;;;;5040876;28;20052;-82
2021/12/30 07:08:54;;;;;;;3.47;2.10;;;;;;;;;;5033730;28;20076;-80
2021/12/30 07:11:20;;;;;;;2.60;1.55;;;;;;;;;;5031121;28;20068;-78
2021/12/30 07:13:46;;;;;;;15.57;8.95;;;;;;;;;;5035507;28;20498;-83
2021/12/30 07:16:12;;;;;;;8.85;5.70;;;;;;;;;;5051523;28;20072;-86
2021/12/30 07:18:38;;;;;;;3.30;2.08;;;;;;;;;;5051192;28;20116;-86
2021/12/30 07:21:04;;;;;;;2.58;1.80;;;;;;;;;;5051563;28;20461;-88
2021/12/30 07:23:30;;;;;;;2.65;1.85;;;;;;;;;;5053374;28;20117;-85
2021/12/30 07:25:55;;;;;;;2.13;1.50;;;;;;;;;;5027991;28;20052;-85
2021/12/30 07:28:22;;;;;;;2.20;1.55;;;;;;;;;;5036652;28;20068;-86
2021/12/30 07:30:48;;;;;;;3.03;1.58;;;;;;;;;;5030659;28;20518;-88
2021/12/30 07:33:20;;;;;;;2.00;1.42;;;;;;;;;;5014315;28;20045;-88
2021/12/30 07:35:46;;;;;;;1.75;1.30;;;;;;;;;;5032450;28;20030;-85
2021/12/30 07:38:12;;;;;;;2.10;1.45;;;;;;;;;;5031956;28;20030;-86
2021/12/30 07:40:38;;;;;;;2.15;1.40;;;;;;;;;;5038107;28;20025;-89
2021/12/30 07:43:03;;;;;;;1.20;1.10;;;;;;;;;;5044483;28;20121;-86
2021/12/30 07:45:29;;;;;;;1.75;1.40;;;;;;;;;;5053690;28;20025;-90
2021/12/30 07:47:55;;;;;;;1.83;1.33;;;;;;;;;;5050006;28;20040;-89
2021/12/30 07:50:22;;;;;;;2.65;1.50;;;;;;;;;;5038137;28;20041;-90
2021/12/30 07:52:53;;;;;;;1.38;1.25;;;;;;;;;;5033283;28;20045;-92
2021/12/30 07:55:19;;;;;;;1.92;1.33;;;;;;;;;;5034981;28;20068;-90
2021/12/30 07:57:45;;;;;;;11.75;7.40;;;;;;;;;;5035061;28;20467;-92
2021/12/30 08:00:14;;;;;;;13.93;8.88;;;;;;;;;;5033164;28;20036;-89
2021/12/30 08:02:44;;;;;;;6.70;4.30;;;;;;;;;;5022819;28;20103;-89
2021/12/30 08:05:12;;;;;;;1.30;1.20;;;;;;;;;;5035025;28;20045;-89
2021/12/30 08:07:38;;;;;;;1.58;1.15;;;;;;;;;;5035313;28;20151;-90
2021/12/30 08:10:10;;;;;;;1.63;1.45;;;;;;;;;;5035241;28;20032;-92
2021/12/30 08:12:37;;;;;;;2.03;1.20;;;;;;;;;;5034718;28;20026;-92
2021/12/30 08:15:04;;;;;;;1.17;1.10;;;;;;;;;;5033943;28;20025;-92
2021/12/30 08:17:30;;;;;;;1.48;1.30;;;;;;;;;;5031865;28;20518;-92
2021/12/30 08:19:56;;;;;;;1.90;1.10;;;;;;;;;;5034141;28;20076;-92
2021/12/30 08:22:22;;;;;;;2.67;1.10;;;;;;;;;;5034657;28;20472;-92
2021/12/30 08:24:48;;;;;;;1.80;1.08;;;;;;;;;;5034414;28;20037;-93
2021/12/30 08:27:14;;;;;;;1.63;1.08;;;;;;;;;;5035546;28;20392;-93
2021/12/30 08:29:41;;;;;;;1.15;0.93;;;;;;;;;;5049320;28;20033;-91
2021/12/30 08:32:11;;;;;;;8.90;4.70;;;;;;;;;;5030930;28;20037;-91
2021/12/30 08:34:41;;;;;;;4.32;1.90;;;;;;;;;;5034676;28;20037;-92
2021/12/30 08:37:11;;;;;;;2.77;1.60;;;;;;;;;;5020067;28;20030;-92
2021/12/30 08:39:39;;;;;;;2.40;1.10;;;;;;;;;;5036027;28;20449;-93
2021/12/30 08:42:16;;;;;;;1.38;0.95;;;;;;;;;;5019376;28;20030;-92
2021/12/30 08:44:42;;;;;;;1.92;1.10;;;;;;;;;;5038882;28;20034;-92
2021/12/30 08:47:08;;;;;;;1.52;1.00;;;;;;;;;;5038990;28;20171;-92
2021/12/30 08:49:34;;;;;;;0.95;0.90;;;;;;;;;;5056479;28;20028;-93
2021/12/30 08:52:03;;;;;;;0.90;0.90;;;;;;;;;;5039145;28;20037;-92
2021/12/30 08:54:31;;;;;;;0.70;0.70;;;;;;;;;;5055565;28;20044;-92
2021/12/30 08:57:02;;;;;;;0.80;0.80;;;;;;;;;;5056752;28;20026;-93
2021/12/30 08:59:27;;;;;;;0.90;0.90;;;;;;;;;;5040424;28;20054;-92
2021/12/30 09:01:54;;;;;;;4.90;2.47;;;;;;;;;;5058152;28;20033;-92
2021/12/30 09:04:20;;;;;;;2.40;1.60;;;;;;;;;;5040778;28;20025;-92
2021/12/30 09:06:46;;;;;;;1.02;0.93;;;;;;;;;;5056105;28;20030;-92
2021/12/30 09:09:12;;;;;;;1.05;0.88;;;;;;;;;;5044081;28;20053;-92
2021/12/30 09:11:38;;;;;;;0.70;0.70;;;;;;;;;;5044254;28;20045;-93
2021/12/30 09:14:06;;;;;;;0.75;0.75;;;;;;;;;;5045136;28;20097;-92
2021/12/30 09:16:32;;;;;;;0.70;0.70;;;;;;;;;;5026233;28;20037;-91
2021/12/30 09:19:01;;;;;;;0.90;0.90;;;;;;;;;;5028244;28;20052;-94
2021/12/30 09:21:30;;;;;;;1.10;0.70;;;;;;;;;;5047800;28;20052;-92
2021/12/30 09:23:56;;;;;;;1.08;0.80;;;;;;;;;;5022865;28;20042;-91
2021/12/30 09:26:21;;;;;;;0.75;0.60;;;;;;;;;;5020293;28;20037;-92
2021/12/30 09:28:47;;;;;;;1.88;0.80;;;;;;;;;;5037609;28;20455;-91
2021/12/30 09:31:13;;;;;;;0.43;0.43;;;;;;;;;;5034492;28;20060;-91
2021/12/30 09:33:42;;;;;;;2.17;0.77;;;;;;;;;;5017888;28;20049;-91
2021/12/30 09:36:08;;;;;;;0.82;0.80;;;;;;;;;;5017448;28;20041;-92
2021/12/30 09:38:34;;;;;;;0.60;0.60;;;;;;;;;;5035069;28;20052;-93
2021/12/30 09:41:00;;;;;;;0.60;0.60;;;;;;;;;;5035699;28;20124;-92
2021/12/30 09:43:28;;;;;;;1.20;0.80;;;;;;;;;;5035594;28;20071;-92
2021/12/30 09:45:57;;;;;;;3.13;0.90;;;;;;;;;;5019473;28;20048;-92
2021/12/30 09:48:23;;;;;;;1.83;0.70;;;;;;;;;;5042698;28;20021;-92
2021/12/30 09:50:54;;;;;;;1.52;0.70;;;;;;;;;;5043509;28;20029;-92
2021/12/30 09:53:23;;;;;;;1.95;0.70;;;;;;;;;;5040686;28;20033;-91
2021/12/30 09:55:56;;;;;;;0.80;0.80;;;;;;;;;;5037424;28;20488;-92
2021/12/30 09:58:22;;;;;;;1.10;0.73;;;;;;;;;;5038100;28;20041;-92
2021/12/30 10:00:49;;;;;;;1.30;0.85;;;;;;;;;;5055198;28;20040;-92
2021/12/30 10:03:14;;;;;;;1.05;0.95;;;;;;;;;;5056048;28;20021;-91
2021/12/30 10:05:41;;;;;;;1.20;1.10;;;;;;;;;;5037390;28;20063;-92
2021/12/30 10:08:25;;;;;;;14.95;8.35;;;;;;;;;;5053709;28;20154;-91
2021/12/30 10:10:57;;;;;;;7.40;3.50;;;;;;;;;;5038133;28;20033;-91
2021/12/30 10:13:30;;;;;;;0.77;0.65;;;;;;;;;;5039154;28;20044;-91
2021/12/30 10:16:00;;;;;;;0.90;0.60;;;;;;;;;;5038781;28;20403;-93
2021/12/30 10:18:47;;;;;;;0.90;0.85;;;;;;;;;;5055099;28;20048;-92
2021/12/30 10:21:38;;;;;;;0.85;0.68;;;;;;;;;;5058221;28;20044;-91
2021/12/30 10:24:07;;;;;;;1.02;0.77;;;;;;;;;;5036490;28;20041;-90
2021/12/30 10:26:54;;;;;;;0.50;0.50;;;;;;;;;;5051413;28;20052;-86
2021/12/30 10:29:21;;;;;;;0.73;0.50;;;;;;;;;;5058964;28;20060;-90
2021/12/30 10:31:48;;;;;;;0.90;0.50;;;;;;;;;;5040719;28;20037;-89
2021/12/30 10:34:16;;;;;;;0.50;0.50;;;;;;;;;;5035877;28;20045;-88
2021/12/30 10:36:50;;;;;;;0.70;0.70;;;;;;;;;;5049521;28;20036;-87
2021/12/30 10:39:20;;;;;;;0.60;0.60;;;;;;;;;;5029578;28;20407;-88
2021/12/30 10:41:47;;;;;;;0.98;0.85;;;;;;;;;;5044080;28;20048;-86
2021/12/30 10:44:13;;;;;;;1.00;0.50;;;;;;;;;;5054164;28;20040;-85
2021/12/30 10:46:40;;;;;;;1.05;0.77;;;;;;;;;;5053750;28;20033;-83
2021/12/30 10:49:09;;;;;;;0.65;0.60;;;;;;;;;;5016909;28;20045;-88
2021/12/30 10:51:47;;;;;;;1.65;0.63;;;;;;;;;;5035833;28;20348;-87
2021/12/30 10:54:26;;;;;;;0.55;0.55;;;;;;;;;;5037470;28;20041;-92
2021/12/30 10:57:07;;;;;;;0.73;0.73;;;;;;;;;;5037416;28;20044;-91
2021/12/30 10:59:36;;;;;;;0.77;0.77;;;;;;;;;;5038653;28;20539;-91
2021/12/30 11:02:12;;;;;;;7.40;3.92;;;;;;;;;;5023101;28;20037;-91
2021/12/30 11:04:41;;;;;;;3.92;1.48;;;;;;;;;;5040034;28;20036;-90
2021/12/30 11:07:11;;;;;;;1.02;0.55;;;;;;;;;;5063380;28;20032;-92
2021/12/30 11:09:46;;;;;;;1.25;0.70;;;;;;;;;;5040456;28;20036;-91
2021/12/30 11:12:12;;;;;;;0.55;0.55;;;;;;;;;;5028505;28;20045;-90
2021/12/30 11:14:41;;;;;;;0.35;0.35;;;;;;;;;;5038433;28;20122;-91
2021/12/30 11:17:17;;;;;;;4.47;1.05;;;;;;;;;;5046454;28;20040;-89
2021/12/30 11:19:52;;;;;;;0.90;0.85;;;;;;;;;;5059728;28;20032;-90
2021/12/30 11:22:24;;;;;;;2.15;0.77;;;;;;;;;;5059587;28;20483;-87
2021/12/30 11:24:52;;;;;;;1.45;1.10;;;;;;;;;;5054879;28;20048;-91
2021/12/30 11:27:19;;;;;;;1.13;0.95;;;;;;;;;;5041944;28;20025;-91
2021/12/30 11:29:47;;;;;;;11.90;6.65;;;;;;;;;;5038555;28;20044;-93
2021/12/30 11:32:19;;;;;;;3.40;1.77;;;;;;;;;;5043118;28;20022;-92
2021/12/30 11:34:47;;;;;;;1.52;1.10;;;;;;;;;;5038551;28;20038;-91
2021/12/30 11:37:23;;;;;;;1.38;1.10;;;;;;;;;;5025679;28;20041;-92
2021/12/30 11:39:55;;;;;;;3.03;1.15;;;;;;;;;;5039262;28;20022;-88
2021/12/30 11:42:36;;;;;;;1.77;1.08;;;;;;;;;;5057625;28;20037;-90
2021/12/30 11:45:03;;;;;;;;;;;;;;;;;;5058420;28;20044;-91
2021/12/30 11:47:31;;;;;;;2.60;1.30;;;;;;;;;;5058053;28;19919;-93
2021/12/30 11:50:05;;;;;;;0.93;0.93;;;;;;;;;;5057867;28;20036;-92
2021/12/30 11:52:48;;;;;;;2.13;1.15;;;;;;;;;;5040383;28;20046;-89
2021/12/30 11:55:53;;;;;;;1.38;1.23;;;;;;;;;;5057138;28;20017;-93
2021/12/30 11:58:49;;;;;;;1.58;1.30;;;;;;;;;;5056105;28;20047;-90
2021/12/30 12:01:14;;;;;;;3.10;1.50;;;;;;;;;;5076183;28;20032;-92
2021/12/30 12:03:54;;;;;;;2.78;1.60;;;;;;;;;;5055556;28;20048;-92
2021/12/30 12:06:40;;;;;;;1.67;1.40;;;;;;;;;;5054517;28;20029;-91
2021/12/30 12:09:28;;;;;;;2.05;1.40;;;;;;;;;;5055692;28;20036;-90
2021/12/30 12:11:59;;;;;;;3.47;1.58;;;;;;;;;;5038768;28;20048;-85
2021/12/30 12:14:28;;;;;;;3.10;1.55;;;;;;;;;;5058591;28;20044;-92
2021/12/30 12:16:59;;;;;;;2.03;1.40;;;;;;;;;;5048932;28;20033;-91
2021/12/30 12:19:36;;;;;;;2.58;1.50;;;;;;;;;;5041454;28;20036;-93
2021/12/30 12:22:05;;;;;;;2.15;1.38;;;;;;;;;;5058697;28;20036;-92
2021/12/30 12:24:38;;;;;;;2.45;1.52;;;;;;;;;;5047235;28;20047;-91
2021/12/30 12:27:24;;;;;;;3.08;1.30;;;;;;;;;;5061308;28;20033;-88
2021/12/30 12:29:57;;;;;;;9.82;5.82;;;;;;;;;;5036010;28;20064;-88
2021/12/30 12:32:29;;;;;;;1.65;1.40;;;;;;;;;;5062624;28;20367;-90
2021/12/30 12:34:56;;;;;;;1.75;1.50;;;;;;;;;;5053308;28;20494;-88
2021/12/30 12:37:37;;;;;;;2.72;1.67;;;;;;;;;;5061458;28;20033;-88
2021/12/30 12:40:04;;;;;;;;;;;;;;;;;;5057958;28;20482;-86
2021/12/30 12:42:43;;;;;;;2.10;1.30;;;;;;;;;;5056636;28;19917;-88
2021/12/30 12:45:20;;;;;;;2.50;1.30;;;;;;;;;;5058704;28;20029;-89
2021/12/30 12:48:07;;;;;;;3.92;2.00;;;;;;;;;;5069203;28;20039;-87
2021/12/30 12:50:41;;;;;;;1.60;1.13;;;;;;;;;;5041913;28;20048;-90
2021/12/30 12:53:28;;;;;;;3.10;1.23;;;;;;;;;;5059764;28;20041;-87
2021/12/30 12:55:57;;;;;;;0.77;0.75;;;;;;;;;;5057228;28;20029;-88
2021/12/30 12:58:25;;;;;;;1.92;1.17;;;;;;;;;;5049301;28;20022;-88
2021/12/30 13:00:54;;;;;;;1.00;0.80;;;;;;;;;;5070201;28;20009;-91
2021/12/30 13:03:20;;;;;;;14.85;5.22;;;;;;;;;;5053739;28;20120;-91
2021/12/30 13:06:01;;;;;;;2.78;1.50;;;;;;;;;;5070457;28;20029;-91
2021/12/30 13:08:28;;;;;;;;;;;;;;;;;;5072591;28;20104;-90
2021/12/30 13:10:54;;;;;;;1.15;0.93;;;;;;;;;;5070698;28;19927;-88
2021/12/30 13:13:31;;;;;;;2.00;0.98;;;;;;;;;;5051851;28;20047;-89
2021/12/30 13:15:58;;;;;;;1.30;1.00;;;;;;;;;;5070329;28;20033;-92
2021/12/30 13:18:24;;;;;;;1.65;1.05;;;;;;;;;;5070324;28;20033;-85
2021/12/30 13:20:51;;;;;;;1.85;1.30;;;;;;;;;;5052360;28;20029;-91
2021/12/30 13:23:33;;;;;;;1.52;1.05;;;;;;;;;;5077835;28;20045;-92
2021/12/30 13:26:04;;;;;;;1.85;1.38;;;;;;;;;;5064265;28;20509;-91
2021/12/30 13:28:31;;;;;;;;;;;;;;;;;;5044180;28;20056;-88
2021/12/30 13:31:14;;;;;;;1.88;1.23;;;;;;;;;;5042473;28;19912;-91
2021/12/30 13:33:52;;;;;;;2.28;1.20;;;;;;;;;;5087780;22;20048;-89
2021/12/30 13:36:18;;;;;;;1.40;1.05;;;;;;;;;;5030486;28;20040;-89
2021/12/30 13:38:44;;;;;;;3.28;1.30;;;;;;;;;;5035146;28;20553;-88
2021/12/30 13:41:16;;;;;;;1.75;0.98;;;;;;;;;;5031127;28;20084;-91
2021/12/30 13:43:44;;;;;;;1.75;1.35;;;;;;;;;;5032483;28;20487;-90
2021/12/30 13:46:12;;;;;;;2.13;1.15;;;;;;;;;;5027546;28;20034;-92
2021/12/30 13:48:41;;;;;;;1.33;1.00;;;;;;;;;;5031447;28;20041;-92
2021/12/30 13:51:21;;;;;;;1.40;0.90;;;;;;;;;;5038076;28;20032;-92
2021/12/30 13:53:48;;;;;;;1.65;0.90;;;;;;;;;;5051473;28;20047;-92
2021/12/30 13:56:23;;;;;;;1.50;1.00;;;;;;;;;;5046523;28;20041;-90
2021/12/30 13:58:50;;;;;;;0.98;0.90;;;;;;;;;;5050672;28;20045;-92
2021/12/30 14:01:21;;;;;;;0.60;0.60;;;;;;;;;;5036580;28;20399;-90
2021/12/30 14:03:48;;;;;;;;;;;;;;;;;;5045430;28;20044;-91
2021/12/30 14:06:24;;;;;;;3.22;1.00;;;;;;;;;;5022401;28;19932;-81
2021/12/30 14:08:56;;;;;;;1.30;1.00;;;;;;;;;;5037936;28;20060;-90
2021/12/30 14:11:31;;;;;;;2.75;1.08;;;;;;;;;;5041065;28;20036;-89
2021/12/30 14:13:58;;;;;;;0.95;0.70;;;;;;;;;;5042182;28;20052;-88
2021/12/30 14:16:27;;;;;;;2.00;0.93;;;;;;;;;;5040361;28;20037;-91
2021/12/30 14:18:55;;;;;;;1.20;0.88;;;;;;;;;;5045014;28;20486;-91
2021/12/30 14:21:24;;;;;;;2.30;0.93;;;;;;;;;;5043613;28;20029;-89
2021/12/30 14:23:53;;;;;;;1.25;0.95;;;;;;;;;;5048240;28;20041;-90
2021/12/30 14:26:30;;;;;;;22.75;13.30;;;;;;;;;;5058367;28;20040;-91
2021/12/30 14:29:00;;;;;;;3.05;1.55;;;;;;;;;;5058887;28;20034;-89
2021/12/30 14:31:27;;;;;;;2.80;1.40;;;;;;;;;;5059648;28;20014;-91
2021/12/30 14:34:19;;;;;;;1.08;0.98;;;;;;;;;;5059798;28;20030;-89
2021/12/30 14:36:54;;;;;;;3.00;1.25;;;;;;;;;;5058663;28;20024;-89
2021/12/30 14:39:32;;;;;;;2.30;1.30;;;;;;;;;;5058264;28;20030;-89
2021/12/30 14:42:21;;;;;;;1.65;1.30;;;;;;;;;;5058167;28;20054;-89
2021/12/30 14:44:49;;;;;;;2.15;1.10;;;;;;;;;;5058681;28;20032;-90
2021/12/30 14:47:28;;;;;;;1.38;1.10;;;;;;;;;;5058891;28;20052;-89
2021/12/30 14:50:14;;;;;;;2.25;1.10;;;;;;;;;;5059125;28;20044;-89
2021/12/30 14:52:53;;;;;;;4.50;1.10;;;;;;;;;;5060432;28;20044;-91
2021/12/30 14:55:34;;;;;;;1.40;1.10;;;;;;;;;;5059972;28;20029;-91